createdAt,value
2019-02-23T00:02:31.012Z,14.73
2019-02-23T00:05:35.808Z,15.10
2019-02-23T00:08:40.752Z,14.23
2019-02-23T00:11:45.353Z,14.33
2019-02-23T00:14:50.069Z,13.97
2019-02-23T00:17:56.420Z,13.57
2019-02-23T00:21:02.695Z,13.07
2019-02-23T00:24:07.520Z,13.50
2019-02-23T00:27:12.355Z,13.00
2019-02-23T00:30:16.992Z,12.50
2019-02-23T00:33:21.921Z,13.33
2019-02-23T00:36:26.566Z,12.10
2019-02-23T00:39:31.330Z,12.10
2019-02-23T00:42:36.226Z,11.43
2019-02-23T00:45:40.840Z,11.30
2019-02-23T00:48:45.525Z,11.70
2019-02-23T00:51:51.929Z,10.23
2019-02-23T00:54:56.735Z,10.90
2019-02-23T00:58:01.491Z,11.00
2019-02-23T01:01:07.243Z,10.20
2019-02-23T01:04:12.069Z,10.27
2019-02-23T01:07:18.095Z,9.70
2019-02-23T01:10:22.861Z,9.90
2019-02-23T01:13:27.689Z,8.90
2019-02-23T01:16:32.603Z,9.17
2019-02-23T01:19:47.274Z,9.20
2019-02-23T01:22:43.600Z,8.83
2019-02-23T01:25:48.452Z,8.33
2019-02-23T01:28:53.372Z,7.67
2019-02-23T01:31:58.209Z,7.90
2019-02-23T01:35:02.864Z,8.33
2019-02-23T01:38:07.561Z,8.10
2019-02-23T01:41:12.369Z,7.20
2019-02-23T01:44:17.001Z,8.03
2019-02-23T01:47:22.646Z,6.80
2019-02-23T01:50:27.085Z,7.00
2019-02-23T01:53:31.831Z,6.50
2019-02-23T01:56:36.768Z,6.37
2019-02-23T01:59:41.447Z,6.37
2019-02-23T02:02:46.408Z,6.00
2019-02-23T02:05:51.126Z,5.47
2019-02-23T02:08:57.917Z,6.00
2019-02-23T02:12:02.726Z,5.77
2019-02-23T02:15:09.610Z,5.97
2019-02-23T02:18:14.345Z,5.70
2019-02-23T02:21:19.192Z,5.50
2019-02-23T02:24:23.842Z,5.60
2019-02-23T02:27:28.742Z,5.63
2019-02-23T02:30:33.578Z,5.53
2019-02-23T02:34:25.251Z,4.90
2019-02-23T02:37:29.999Z,5.10
2019-02-23T02:40:34.706Z,4.23
2019-02-23T02:43:40.588Z,4.77
2019-02-23T02:46:45.442Z,4.30
2019-02-23T02:49:50.236Z,4.47
2019-02-23T02:52:55.182Z,4.17
2019-02-23T02:55:59.884Z,4.17
2019-02-23T02:59:04.628Z,4.47
2019-02-23T03:02:09.566Z,3.77
2019-02-23T03:05:14.507Z,4.00
2019-02-23T03:08:19.315Z,4.00
2019-02-23T03:11:23.951Z,3.80
2019-02-23T03:14:31.643Z,3.90
2019-02-23T03:17:37.705Z,3.50
2019-02-23T03:20:42.540Z,3.77
2019-02-23T03:23:47.259Z,3.53
2019-02-23T03:26:52.101Z,3.30
2019-02-23T03:29:56.922Z,3.50
2019-02-23T03:33:01.540Z,3.70
2019-02-23T03:36:06.438Z,4.00
2019-02-23T03:39:11.199Z,3.17
2019-02-23T03:42:16.058Z,3.50
2019-02-23T03:45:20.785Z,3.00
2019-02-23T03:48:26.500Z,2.80
2019-02-23T03:51:31.142Z,3.40
2019-02-23T03:54:35.979Z,3.10
2019-02-23T03:57:40.842Z,3.33
2019-02-23T04:00:45.532Z,2.87
2019-02-23T04:03:52.361Z,3.00
2019-02-23T04:06:58.174Z,2.80
2019-02-23T04:10:03.047Z,2.90
2019-02-23T04:13:07.707Z,2.57
2019-02-23T04:16:12.367Z,3.10
2019-02-23T04:19:17.211Z,2.90
2019-02-23T04:22:21.804Z,2.60
2019-02-23T04:25:26.424Z,2.77
2019-02-23T04:28:31.252Z,2.53
2019-02-23T04:31:35.996Z,2.67
2019-02-23T04:34:40.810Z,2.50
2019-02-23T04:37:45.449Z,2.40
2019-02-23T04:40:51.149Z,2.33
2019-02-23T04:43:55.740Z,2.43
2019-02-23T04:47:00.463Z,2.50
2019-02-23T04:50:05.293Z,3.60
2019-02-23T04:53:10.112Z,3.10
2019-02-23T04:56:14.838Z,2.70
2019-02-23T04:59:19.680Z,2.60
2019-02-23T05:02:24.394Z,2.47
2019-02-23T05:05:30.429Z,3.37
2019-02-23T05:08:35.277Z,4.43
2019-02-23T05:11:39.799Z,4.47
2019-02-23T05:14:44.335Z,4.20
2019-02-23T05:17:49.050Z,4.50
2019-02-23T05:20:53.603Z,5.33
2019-02-23T05:23:58.098Z,5.53
2019-02-23T05:27:02.820Z,4.70
2019-02-23T05:30:08.586Z,6.03
2019-02-23T05:33:13.523Z,5.33
2019-02-23T05:36:18.447Z,5.97
2019-02-23T05:39:22.977Z,4.97
2019-02-23T05:42:27.801Z,5.70
2019-02-23T05:45:32.532Z,6.30
2019-02-23T05:48:37.269Z,7.10
2019-02-23T05:51:42.097Z,8.30
2019-02-23T05:54:47.028Z,8.50
2019-02-23T05:57:51.737Z,8.43
2019-02-23T06:00:56.279Z,9.60
2019-02-23T06:04:01.113Z,19.07
2019-02-23T06:07:05.939Z,26.43
2019-02-23T06:10:11.287Z,31.17
2019-02-23T06:13:15.909Z,30.27
2019-02-23T06:16:20.761Z,28.00
2019-02-23T06:19:25.681Z,27.10
2019-02-23T06:22:30.396Z,29.30
2019-02-23T06:25:36.197Z,29.07
2019-02-23T06:28:40.976Z,28.60
2019-02-23T06:31:45.902Z,27.67
2019-02-23T06:34:50.761Z,26.07
2019-02-23T06:37:55.575Z,25.63
2019-02-23T06:41:00.304Z,25.03
2019-02-23T06:44:04.913Z,19.73
2019-02-23T06:47:09.755Z,13.70
2019-02-23T06:50:14.684Z,17.83
2019-02-23T06:53:19.529Z,16.00
2019-02-23T06:56:24.375Z,18.83
2019-02-23T06:59:29.175Z,17.70
2019-02-23T07:02:33.926Z,17.13
2019-02-23T07:05:38.543Z,17.63
2019-02-23T07:08:43.381Z,16.90
2019-02-23T07:11:49.408Z,17.03
2019-02-23T07:14:54.056Z,16.90
2019-02-23T07:17:58.778Z,14.73
2019-02-23T07:21:03.605Z,14.47
2019-02-23T07:24:08.338Z,15.50
2019-02-23T07:27:13.175Z,15.17
2019-02-23T07:30:17.951Z,13.67
2019-02-23T07:33:32.448Z,13.23
2019-02-23T07:36:30.307Z,13.53
2019-02-23T07:39:34.925Z,12.60
2019-02-23T07:42:39.788Z,13.00
2019-02-23T07:45:44.610Z,12.07
2019-02-23T07:48:50.480Z,12.33
2019-02-23T07:51:56.120Z,11.80
2019-02-23T07:55:00.839Z,11.20
2019-02-23T07:58:05.226Z,11.40
2019-02-23T08:01:09.628Z,10.83
2019-02-23T08:04:14.078Z,10.20
2019-02-23T08:07:18.465Z,10.27
2019-02-23T08:10:23.129Z,10.00
2019-02-23T08:13:27.875Z,10.17
2019-02-23T08:16:32.611Z,9.80
2019-02-23T08:19:37.257Z,9.63
2019-02-23T08:22:41.952Z,9.60
2019-02-23T08:25:46.603Z,10.00
2019-02-23T08:28:51.113Z,9.00
2019-02-23T08:31:55.933Z,9.50
2019-02-23T08:35:00.859Z,9.13
2019-02-23T08:38:05.589Z,9.00
2019-02-23T08:41:10.456Z,8.27
2019-02-23T08:44:16.159Z,8.17
2019-02-23T08:47:21.052Z,8.20
2019-02-23T08:50:25.744Z,7.93
2019-02-23T08:53:30.364Z,7.93
2019-02-23T08:56:35.078Z,7.23
2019-02-23T08:59:39.838Z,7.03
2019-02-23T09:02:44.653Z,7.40
2019-02-23T09:05:49.383Z,7.03
2019-02-23T09:08:54.313Z,8.17
2019-02-23T09:11:59.040Z,8.23
2019-02-23T09:15:03.665Z,7.23
2019-02-23T09:18:08.600Z,6.50
2019-02-23T09:21:13.428Z,6.50
2019-02-23T09:24:18.292Z,6.40
2019-02-23T09:27:23.085Z,6.40
2019-02-23T09:30:27.831Z,6.20
2019-02-23T09:33:32.556Z,6.23
2019-02-23T09:36:37.392Z,5.80
2019-02-23T09:39:42.206Z,5.90
2019-02-23T09:42:47.148Z,5.90
2019-02-23T09:45:51.973Z,5.90
2019-02-23T09:48:56.816Z,5.73
2019-02-23T09:52:01.382Z,5.83
2019-02-23T09:55:06.159Z,5.40
2019-02-23T09:58:10.666Z,5.53
2019-02-23T10:01:15.300Z,5.47
2019-02-23T10:04:20.017Z,4.83
2019-02-23T10:07:24.757Z,5.30
2019-02-23T10:10:29.604Z,5.30
2019-02-23T10:13:34.434Z,5.13
2019-02-23T10:16:39.145Z,5.47
2019-02-23T10:19:43.983Z,5.47
2019-02-23T10:22:48.817Z,5.37
2019-02-23T10:25:53.569Z,5.20
2019-02-23T10:28:58.459Z,5.00
2019-02-23T10:32:03.110Z,4.60
2019-02-23T10:35:09.016Z,4.90
2019-02-23T10:38:13.796Z,4.57
2019-02-23T10:41:18.401Z,4.70
2019-02-23T10:44:23.149Z,5.10
2019-02-23T10:47:27.966Z,4.70
2019-02-23T10:50:32.909Z,4.90
2019-02-23T10:53:37.740Z,5.60
2019-02-23T10:56:42.548Z,4.87
2019-02-23T10:59:47.171Z,4.80
2019-02-23T11:02:51.831Z,4.93
2019-02-23T11:05:56.651Z,4.73
2019-02-23T11:09:01.613Z,4.60
2019-02-23T11:12:06.398Z,4.10
2019-02-23T11:15:11.837Z,4.40
2019-02-23T11:18:16.470Z,4.70
2019-02-23T11:21:21.089Z,4.50
2019-02-23T11:24:25.711Z,4.20
2019-02-23T11:27:30.460Z,4.30
2019-02-23T11:30:35.185Z,4.30
2019-02-23T11:33:39.945Z,3.97
2019-02-23T11:36:44.729Z,3.83
2019-02-23T11:39:49.513Z,3.93
2019-02-23T11:42:54.393Z,3.60
2019-02-23T11:45:59.334Z,4.30
2019-02-23T11:49:04.158Z,3.70
2019-02-23T11:52:09.000Z,3.73
2019-02-23T11:55:13.713Z,3.87
2019-02-23T11:58:18.561Z,3.70
2019-02-23T12:01:23.413Z,3.73
2019-02-23T12:04:28.099Z,3.93
2019-02-23T12:07:32.724Z,4.07
2019-02-23T12:10:37.363Z,4.00
2019-02-23T12:13:41.885Z,3.90
2019-02-23T12:16:46.643Z,3.60
2019-02-23T12:19:51.347Z,4.00
2019-02-23T12:22:56.302Z,3.80
2019-02-23T12:26:01.217Z,3.63
2019-02-23T12:29:05.947Z,3.50
2019-02-23T12:32:10.661Z,3.47
2019-02-23T12:35:16.333Z,3.17
2019-02-23T12:38:21.144Z,3.30
2019-02-23T12:41:25.989Z,3.00
2019-02-23T12:44:30.748Z,3.00
2019-02-23T12:47:35.520Z,3.50
2019-02-23T12:50:40.503Z,2.80
2019-02-23T12:53:45.025Z,3.00
2019-02-23T12:56:49.745Z,3.17
2019-02-23T12:59:54.436Z,3.30
2019-02-23T13:02:59.182Z,3.20
2019-02-23T13:06:04.040Z,3.23
2019-02-23T13:09:26.646Z,2.77
2019-02-23T13:12:37.197Z,3.20
2019-02-23T13:15:49.602Z,2.80
2019-02-23T13:19:41.434Z,2.90
2019-02-23T13:23:07.937Z,2.73
2019-02-23T13:26:54.626Z,3.17
2019-02-23T13:30:16.870Z,2.63
2019-02-23T13:34:20.649Z,2.70
2019-02-23T13:38:14.901Z,2.80
2019-02-23T13:41:29.224Z,3.40
2019-02-23T13:45:11.133Z,2.70
2019-02-23T13:48:37.139Z,3.20
2019-02-23T13:52:15.039Z,2.83
2019-02-23T13:56:18.710Z,2.73
2019-02-23T14:00:13.647Z,3.10
2019-02-23T14:03:58.024Z,2.90
2019-02-23T14:07:30.479Z,2.87
2019-02-23T14:11:11.245Z,3.00
2019-02-23T14:14:24.057Z,2.83
2019-02-23T14:18:13.706Z,2.90
2019-02-23T14:22:05.293Z,3.20
2019-02-23T14:25:59.880Z,3.03
2019-02-23T14:29:43.199Z,3.23
2019-02-23T14:33:29.782Z,3.90
2019-02-23T14:37:05.304Z,3.30
2019-02-23T14:40:43.599Z,3.37
2019-02-23T14:44:04.754Z,3.47
2019-02-23T14:47:52.042Z,4.30
2019-02-23T14:51:46.887Z,3.77
2019-02-23T14:55:05.851Z,3.80
2019-02-23T14:58:57.227Z,3.60
2019-02-23T15:03:01.938Z,3.30
2019-02-23T15:06:43.101Z,3.97
2019-02-23T15:10:16.239Z,3.93
2019-02-23T15:13:55.197Z,3.33
2019-02-23T15:17:43.584Z,3.10
2019-02-23T15:21:21.387Z,3.40
2019-02-23T15:25:19.453Z,3.60
2019-02-23T15:29:00.997Z,3.30
2019-02-23T15:32:42.185Z,3.80
2019-02-23T15:36:21.640Z,3.50
2019-02-23T15:39:50.423Z,3.33
2019-02-23T15:43:50.281Z,3.30
2019-02-23T15:47:23.983Z,3.77
2019-02-23T15:53:44.170Z,4.07
2019-02-23T15:56:49.094Z,3.97
2019-02-23T15:59:53.736Z,3.77
2019-02-23T16:02:58.654Z,4.20
2019-02-23T16:06:03.377Z,4.37
2019-02-23T16:09:08.108Z,3.80
2019-02-23T16:12:34.542Z,3.50
2019-02-23T16:15:41.181Z,3.93
2019-02-23T16:18:45.933Z,3.73
2019-02-23T16:21:52.994Z,9.20
2019-02-23T16:24:57.016Z,6.57
2019-02-23T16:28:01.874Z,5.40
2019-02-23T16:31:06.598Z,5.40
2019-02-23T16:34:11.433Z,5.37
2019-02-23T16:37:16.256Z,4.90
2019-02-23T16:40:21.080Z,5.23
2019-02-23T16:43:25.812Z,4.97
2019-02-23T16:46:32.351Z,4.60
2019-02-23T16:49:37.016Z,4.97
2019-02-23T16:52:41.838Z,4.63
2019-02-23T16:55:51.006Z,4.23
2019-02-23T16:58:53.105Z,4.03
2019-02-23T17:01:57.672Z,4.13
2019-02-23T17:05:02.490Z,4.60
2019-02-23T17:08:07.427Z,4.30
2019-02-23T17:11:12.238Z,4.23
2019-02-23T17:14:17.012Z,4.30
2019-02-23T17:17:21.802Z,4.43
2019-02-23T17:20:26.756Z,4.03
2019-02-23T17:23:31.481Z,3.80
2019-02-23T17:26:36.921Z,4.80
2019-02-23T17:29:41.874Z,3.80
2019-02-23T17:32:46.675Z,4.33
2019-02-23T17:35:51.544Z,5.20
2019-02-23T17:38:56.233Z,5.33
2019-02-23T17:42:01.067Z,8.33
2019-02-23T17:45:05.794Z,7.07
2019-02-23T17:48:10.833Z,8.73
2019-02-23T17:51:15.655Z,9.67
2019-02-23T17:54:20.402Z,10.43
2019-02-23T17:57:25.296Z,10.43
2019-02-23T18:00:30.074Z,9.47
2019-02-23T18:03:34.712Z,9.07
2019-02-23T18:06:39.607Z,9.90
2019-02-23T18:09:44.236Z,9.97
2019-02-23T18:12:49.168Z,10.87
2019-02-23T18:15:53.910Z,14.00
2019-02-23T18:18:58.716Z,15.03
2019-02-23T18:22:03.673Z,16.57
2019-02-23T18:25:08.647Z,16.83
2019-02-23T18:28:14.545Z,17.20
2019-02-23T18:31:19.312Z,18.73
2019-02-23T18:34:24.113Z,20.80
2019-02-23T18:37:28.745Z,21.80
2019-02-23T18:40:33.475Z,23.43
2019-02-23T18:43:38.280Z,20.83
2019-02-23T18:46:42.913Z,22.43
2019-02-23T18:49:47.677Z,23.50
2019-02-23T18:52:52.617Z,23.40
2019-02-23T18:55:57.237Z,23.97
2019-02-23T18:59:02.072Z,24.60
2019-02-23T19:02:06.879Z,24.33
2019-02-23T19:05:12.420Z,24.50
2019-02-23T19:08:17.357Z,25.00
2019-02-23T19:11:21.975Z,24.67
2019-02-23T19:14:26.916Z,26.83
2019-02-23T19:17:31.746Z,26.40
2019-02-23T19:20:36.587Z,27.10
2019-02-23T19:23:41.508Z,29.53
2019-02-23T19:26:46.346Z,31.10
2019-02-23T19:29:51.299Z,31.77
2019-02-23T19:32:56.211Z,31.50
2019-02-23T19:36:01.236Z,30.60
2019-02-23T19:39:06.202Z,30.97
2019-02-23T19:42:10.826Z,31.80
2019-02-23T19:45:16.912Z,31.40
2019-02-23T19:48:21.577Z,31.50
2019-02-23T19:51:26.396Z,29.07
2019-02-23T19:54:31.057Z,29.13
2019-02-23T19:57:35.751Z,29.07
2019-02-23T20:00:40.472Z,30.17
2019-02-23T20:03:47.519Z,27.97
2019-02-23T20:06:52.295Z,30.10
2019-02-23T20:09:57.132Z,28.40
2019-02-23T20:13:03.569Z,29.50
2019-02-23T20:16:08.543Z,28.10
2019-02-23T20:19:14.447Z,28.83
2019-02-23T20:22:19.330Z,28.50
2019-02-23T20:25:24.180Z,26.70
2019-02-23T20:28:28.977Z,25.90
2019-02-23T20:31:33.857Z,26.47
2019-02-23T20:34:38.466Z,27.27
2019-02-23T20:37:43.271Z,26.47
2019-02-23T20:40:48.163Z,26.40
2019-02-23T20:43:52.812Z,26.23
2019-02-23T20:46:57.659Z,24.83
2019-02-23T20:50:03.960Z,25.10
2019-02-23T20:53:08.859Z,24.20
2019-02-23T20:56:13.785Z,24.60
2019-02-23T20:59:18.494Z,24.33
2019-02-23T21:02:23.132Z,25.20
2019-02-23T21:05:27.667Z,23.90
2019-02-23T21:08:32.490Z,26.10
2019-02-23T21:11:37.328Z,26.50
2019-02-23T21:14:42.155Z,26.13
2019-02-23T21:17:46.937Z,26.53
2019-02-23T21:20:51.748Z,25.40
2019-02-23T21:23:56.543Z,24.57
2019-02-23T21:27:01.381Z,26.10
2019-02-23T21:30:06.606Z,25.70
2019-02-23T21:33:11.343Z,26.07
2019-02-23T21:36:15.853Z,25.87
2019-02-23T21:39:22.724Z,25.80
2019-02-23T21:42:27.457Z,24.70
2019-02-23T21:45:33.396Z,23.87
2019-02-23T21:48:38.046Z,25.63
2019-02-23T21:51:42.999Z,23.60
2019-02-23T21:54:47.526Z,22.87
2019-02-23T21:57:52.311Z,22.40
2019-02-23T22:00:58.648Z,22.90
2019-02-23T22:04:03.527Z,21.77
2019-02-23T22:07:08.278Z,21.77
2019-02-23T22:10:12.889Z,22.47
2019-02-23T22:13:17.722Z,21.97
2019-02-23T22:16:22.640Z,21.60
2019-02-23T22:19:28.351Z,21.13
2019-02-23T22:22:33.022Z,20.40
2019-02-23T22:25:37.657Z,22.20
2019-02-23T22:28:43.828Z,21.27
2019-02-23T22:31:48.547Z,21.43
2019-02-23T22:34:53.369Z,20.33
2019-02-23T22:37:59.893Z,19.53
2019-02-23T22:41:05.774Z,20.33
2019-02-23T22:44:10.510Z,19.60
2019-02-23T22:47:16.243Z,20.93
2019-02-23T22:50:20.996Z,19.90
2019-02-23T22:53:25.823Z,18.57
2019-02-23T22:56:32.400Z,19.40
2019-02-23T22:59:37.315Z,18.90
2019-02-23T23:02:41.870Z,18.80
2019-02-23T23:05:46.673Z,16.60
2019-02-23T23:08:51.523Z,17.53
2019-02-23T23:11:56.485Z,17.20
2019-02-23T23:15:03.267Z,16.57
2019-02-23T23:18:07.748Z,16.73
2019-02-23T23:21:12.672Z,16.97
2019-02-23T23:24:17.304Z,19.00
2019-02-23T23:27:22.031Z,20.03
2019-02-23T23:30:26.777Z,18.93
2019-02-23T23:33:31.391Z,20.27
2019-02-23T23:36:35.997Z,22.00
2019-02-23T23:39:40.640Z,23.63
2019-02-23T23:42:45.369Z,23.17
2019-02-23T23:45:50.203Z,23.80
2019-02-23T23:48:54.812Z,22.63
2019-02-23T23:51:59.461Z,21.67
2019-02-23T23:55:04.284Z,20.17
2019-02-23T23:58:10.149Z,18.77
